sensor_id;sensor_type;location;lat;lon;timestamp;pressure;altitude;pressure_sealevel;temperature;humidity
81196;BME280;70671;43.888;-79.394;2023-07-31T00:00:04;98963.28;;;23.95;47.54
81196;BME280;70671;43.888;-79.394;2023-07-31T00:02:30;98967.47;;;23.75;48.67
81196;BME280;70671;43.888;-79.394;2023-07-31T00:04:56;98970.25;;;23.62;48.55
81196;BME280;70671;43.888;-79.394;2023-07-31T00:07:22;98965.09;;;23.53;48.19
81196;BME280;70671;43.888;-79.394;2023-07-31T00:09:48;98961.88;;;23.49;46.28
81196;BME280;70671;43.888;-79.394;2023-07-31T00:14:40;98957.50;;;23.22;46.18
81196;BME280;70671;43.888;-79.394;2023-07-31T00:17:06;98959.38;;;23.14;45.77
81196;BME280;70671;43.888;-79.394;2023-07-31T00:19:32;98963.03;;;23.09;46.21
81196;BME280;70671;43.888;-79.394;2023-07-31T00:21:58;98960.03;;;23.07;46.63
81196;BME280;70671;43.888;-79.394;2023-07-31T00:24:23;98972.56;;;23.01;47.24
81196;BME280;70671;43.888;-79.394;2023-07-31T00:26:49;98953.22;;;22.89;48.42
81196;BME280;70671;43.888;-79.394;2023-07-31T00:29:15;98960.59;;;22.87;50.91
81196;BME280;70671;43.888;-79.394;2023-07-31T00:31:41;98972.91;;;22.78;50.27
81196;BME280;70671;43.888;-79.394;2023-07-31T00:34:07;98968.09;;;22.60;48.83
81196;BME280;70671;43.888;-79.394;2023-07-31T00:36:33;98960.84;;;22.52;49.11
81196;BME280;70671;43.888;-79.394;2023-07-31T00:38:59;98956.03;;;22.34;48.23
81196;BME280;70671;43.888;-79.394;2023-07-31T00:41:25;98969.72;;;22.32;51.93
81196;BME280;70671;43.888;-79.394;2023-07-31T00:43:51;98952.47;;;22.14;53.08
81196;BME280;70671;43.888;-79.394;2023-07-31T00:46:17;98962.47;;;22.04;53.33
81196;BME280;70671;43.888;-79.394;2023-07-31T00:48:43;98979.66;;;21.84;54.23
81196;BME280;70671;43.888;-79.394;2023-07-31T00:51:10;98970.91;;;21.69;55.06
81196;BME280;70671;43.888;-79.394;2023-07-31T00:53:36;98973.13;;;21.52;55.52
81196;BME280;70671;43.888;-79.394;2023-07-31T00:56:03;98974.75;;;21.42;55.52
81196;BME280;70671;43.888;-79.394;2023-07-31T00:58:30;98976.34;;;21.32;56.33
81196;BME280;70671;43.888;-79.394;2023-07-31T01:00:56;98972.94;;;21.15;56.33
81196;BME280;70671;43.888;-79.394;2023-07-31T01:03:25;98983.59;;;21.11;56.57
81196;BME280;70671;43.888;-79.394;2023-07-31T01:08:32;98992.75;;;21.00;53.43
81196;BME280;70671;43.888;-79.394;2023-07-31T01:11:29;98997.88;;;20.91;55.87
81196;BME280;70671;43.888;-79.394;2023-07-31T01:13:56;99000.41;;;20.89;54.75
81196;BME280;70671;43.888;-79.394;2023-07-31T01:16:23;99000.19;;;20.81;52.69
81196;BME280;70671;43.888;-79.394;2023-07-31T01:18:49;99006.72;;;20.89;52.44
81196;BME280;70671;43.888;-79.394;2023-07-31T01:26:46;99013.66;;;20.72;55.95
81196;BME280;70671;43.888;-79.394;2023-07-31T01:29:20;99007.66;;;20.57;53.63
81196;BME280;70671;43.888;-79.394;2023-07-31T01:31:50;99016.75;;;20.63;53.50
81196;BME280;70671;43.888;-79.394;2023-07-31T01:34:18;99011.97;;;20.58;53.31
81196;BME280;70671;43.888;-79.394;2023-07-31T01:36:45;99008.47;;;20.51;54.71
81196;BME280;70671;43.888;-79.394;2023-07-31T01:39:11;99014.78;;;20.46;55.80
81196;BME280;70671;43.888;-79.394;2023-07-31T01:41:37;99022.63;;;20.48;56.24
81196;BME280;70671;43.888;-79.394;2023-07-31T01:44:03;99009.06;;;20.28;56.88
81196;BME280;70671;43.888;-79.394;2023-07-31T01:46:29;99022.44;;;20.18;56.10
81196;BME280;70671;43.888;-79.394;2023-07-31T01:48:55;99028.53;;;20.11;56.72
81196;BME280;70671;43.888;-79.394;2023-07-31T01:51:20;99027.31;;;20.01;57.24
81196;BME280;70671;43.888;-79.394;2023-07-31T01:53:48;99024.56;;;19.90;57.78
81196;BME280;70671;43.888;-79.394;2023-07-31T01:56:14;99018.03;;;19.71;58.29
81196;BME280;70671;43.888;-79.394;2023-07-31T01:58:40;99033.44;;;19.66;59.39
81196;BME280;70671;43.888;-79.394;2023-07-31T02:01:06;99037.22;;;19.58;59.26
81196;BME280;70671;43.888;-79.394;2023-07-31T02:03:32;99031.66;;;19.47;59.24
81196;BME280;70671;43.888;-79.394;2023-07-31T02:05:58;99038.25;;;19.44;59.24
81196;BME280;70671;43.888;-79.394;2023-07-31T02:08:23;99035.94;;;19.31;60.75
81196;BME280;70671;43.888;-79.394;2023-07-31T02:10:49;99045.50;;;19.30;59.40
81196;BME280;70671;43.888;-79.394;2023-07-31T02:13:15;99021.31;;;19.14;61.06
81196;BME280;70671;43.888;-79.394;2023-07-31T02:15:41;99040.44;;;19.18;61.29
81196;BME280;70671;43.888;-79.394;2023-07-31T02:18:07;99028.09;;;19.02;62.12
81196;BME280;70671;43.888;-79.394;2023-07-31T02:20:34;99028.59;;;18.89;62.70
81196;BME280;70671;43.888;-79.394;2023-07-31T02:23:01;99035.63;;;18.79;62.92
81196;BME280;70671;43.888;-79.394;2023-07-31T02:25:27;99033.59;;;18.74;62.14
81196;BME280;70671;43.888;-79.394;2023-07-31T02:27:53;99040.84;;;18.66;62.96
81196;BME280;70671;43.888;-79.394;2023-07-31T02:30:19;99042.59;;;18.58;63.30
81196;BME280;70671;43.888;-79.394;2023-07-31T02:32:44;99034.53;;;18.49;62.97
81196;BME280;70671;43.888;-79.394;2023-07-31T02:35:10;99040.50;;;18.42;63.99
81196;BME280;70671;43.888;-79.394;2023-07-31T02:37:43;99049.03;;;18.33;64.48
81196;BME280;70671;43.888;-79.394;2023-07-31T02:40:10;99031.13;;;18.23;64.00
81196;BME280;70671;43.888;-79.394;2023-07-31T02:42:36;99031.84;;;18.18;64.34
81196;BME280;70671;43.888;-79.394;2023-07-31T02:45:02;99035.09;;;18.11;64.38
81196;BME280;70671;43.888;-79.394;2023-07-31T02:47:28;99021.44;;;17.96;64.31
81196;BME280;70671;43.888;-79.394;2023-07-31T02:49:54;99041.78;;;17.99;64.21
81196;BME280;70671;43.888;-79.394;2023-07-31T02:52:21;99026.19;;;17.90;64.42
81196;BME280;70671;43.888;-79.394;2023-07-31T02:54:47;99024.63;;;17.84;64.26
81196;BME280;70671;43.888;-79.394;2023-07-31T02:57:13;99020.53;;;17.74;64.97
81196;BME280;70671;43.888;-79.394;2023-07-31T02:59:39;99036.66;;;17.81;65.73
81196;BME280;70671;43.888;-79.394;2023-07-31T03:02:05;99024.78;;;17.69;64.59
81196;BME280;70671;43.888;-79.394;2023-07-31T03:04:31;99029.78;;;17.65;65.97
81196;BME280;70671;43.888;-79.394;2023-07-31T03:06:57;99009.59;;;17.54;65.75
81196;BME280;70671;43.888;-79.394;2023-07-31T03:09:23;99035.53;;;17.62;65.09
81196;BME280;70671;43.888;-79.394;2023-07-31T03:11:49;99043.09;;;17.67;64.14
81196;BME280;70671;43.888;-79.394;2023-07-31T03:14:15;99032.47;;;17.54;63.64
81196;BME280;70671;43.888;-79.394;2023-07-31T03:16:41;99034.78;;;17.61;63.33
81196;BME280;70671;43.888;-79.394;2023-07-31T03:19:07;99020.94;;;17.56;62.79
81196;BME280;70671;43.888;-79.394;2023-07-31T03:21:33;99033.56;;;17.68;63.82
81196;BME280;70671;43.888;-79.394;2023-07-31T03:23:59;99033.31;;;17.66;63.42
81196;BME280;70671;43.888;-79.394;2023-07-31T03:26:25;99042.13;;;17.70;62.69
81196;BME280;70671;43.888;-79.394;2023-07-31T03:28:51;99033.34;;;17.71;62.80
81196;BME280;70671;43.888;-79.394;2023-07-31T03:31:17;99040.16;;;17.76;63.35
81196;BME280;70671;43.888;-79.394;2023-07-31T03:33:42;99039.63;;;17.72;63.19
81196;BME280;70671;43.888;-79.394;2023-07-31T03:36:08;99036.38;;;17.73;62.62
81196;BME280;70671;43.888;-79.394;2023-07-31T03:38:34;99038.09;;;17.71;62.90
81196;BME280;70671;43.888;-79.394;2023-07-31T03:41:00;99033.31;;;17.66;63.43
81196;BME280;70671;43.888;-79.394;2023-07-31T03:43:27;99043.88;;;17.67;63.49
81196;BME280;70671;43.888;-79.394;2023-07-31T03:45:53;99027.97;;;17.57;63.40
81196;BME280;70671;43.888;-79.394;2023-07-31T03:48:19;99039.28;;;17.59;63.89
81196;BME280;70671;43.888;-79.394;2023-07-31T03:50:45;99037.50;;;17.56;62.79
81196;BME280;70671;43.888;-79.394;2023-07-31T03:53:11;99029.16;;;17.50;64.98
81196;BME280;70671;43.888;-79.394;2023-07-31T03:55:37;99037.38;;;17.45;64.90
81196;BME280;70671;43.888;-79.394;2023-07-31T03:58:03;99021.19;;;17.32;64.61
81196;BME280;70671;43.888;-79.394;2023-07-31T04:00:29;99019.38;;;17.23;64.23
81196;BME280;70671;43.888;-79.394;2023-07-31T04:02:55;99024.44;;;17.25;64.16
81196;BME280;70671;43.888;-79.394;2023-07-31T04:05:21;99025.34;;;17.16;65.24
81196;BME280;70671;43.888;-79.394;2023-07-31T04:07:47;99035.91;;;17.18;64.78
81196;BME280;70671;43.888;-79.394;2023-07-31T04:10:13;99029.09;;;17.13;64.85
81196;BME280;70671;43.888;-79.394;2023-07-31T04:12:39;99029.56;;;17.12;65.23
81196;BME280;70671;43.888;-79.394;2023-07-31T04:15:05;99026.22;;;17.02;65.63
81196;BME280;70671;43.888;-79.394;2023-07-31T04:17:31;99019.91;;;16.96;66.21
81196;BME280;70671;43.888;-79.394;2023-07-31T04:19:57;99023.13;;;16.95;65.96
81196;BME280;70671;43.888;-79.394;2023-07-31T04:22:23;99038.78;;;17.03;65.79
81196;BME280;70671;43.888;-79.394;2023-07-31T04:24:49;99045.31;;;17.00;66.33
81196;BME280;70671;43.888;-79.394;2023-07-31T04:27:15;99033.63;;;16.91;66.47
81196;BME280;70671;43.888;-79.394;2023-07-31T04:29:41;99044.56;;;17.05;65.05
81196;BME280;70671;43.888;-79.394;2023-07-31T04:32:08;99017.34;;;16.93;65.19
81196;BME280;70671;43.888;-79.394;2023-07-31T04:34:34;99040.59;;;17.06;65.73
81196;BME280;70671;43.888;-79.394;2023-07-31T04:37:00;99039.59;;;17.09;66.61
81196;BME280;70671;43.888;-79.394;2023-07-31T04:39:26;99043.63;;;17.08;66.07
81196;BME280;70671;43.888;-79.394;2023-07-31T04:41:52;99036.28;;;17.05;66.68
81196;BME280;70671;43.888;-79.394;2023-07-31T04:44:18;99032.19;;;16.95;67.38
81196;BME280;70671;43.888;-79.394;2023-07-31T04:46:44;99026.59;;;16.90;66.81
81196;BME280;70671;43.888;-79.394;2023-07-31T04:49:11;99034.94;;;16.95;66.81
81196;BME280;70671;43.888;-79.394;2023-07-31T04:51:37;99027.38;;;16.90;66.79
81196;BME280;70671;43.888;-79.394;2023-07-31T04:54:03;99023.91;;;16.95;67.33
81196;BME280;70671;43.888;-79.394;2023-07-31T04:56:29;99021.66;;;16.99;67.28
81196;BME280;70671;43.888;-79.394;2023-07-31T04:58:55;99024.97;;;17.03;67.56
81196;BME280;70671;43.888;-79.394;2023-07-31T05:01:21;99022.72;;;17.02;67.41
81196;BME280;70671;43.888;-79.394;2023-07-31T05:03:47;99021.13;;;16.95;68.62
81196;BME280;70671;43.888;-79.394;2023-07-31T05:06:13;99019.13;;;16.96;67.99
81196;BME280;70671;43.888;-79.394;2023-07-31T05:08:41;99024.88;;;16.92;68.26
81196;BME280;70671;43.888;-79.394;2023-07-31T05:11:06;99005.69;;;16.83;68.39
81196;BME280;70671;43.888;-79.394;2023-07-31T05:13:32;98994.53;;;16.72;69.18
81196;BME280;70671;43.888;-79.394;2023-07-31T05:15:58;99013.44;;;16.79;69.33
81196;BME280;70671;43.888;-79.394;2023-07-31T05:18:24;99008.91;;;16.76;69.92
81196;BME280;70671;43.888;-79.394;2023-07-31T05:20:50;99018.16;;;16.73;69.58
81196;BME280;70671;43.888;-79.394;2023-07-31T05:23:16;99012.59;;;16.68;69.10
81196;BME280;70671;43.888;-79.394;2023-07-31T05:25:42;99013.50;;;16.59;70.14
81196;BME280;70671;43.888;-79.394;2023-07-31T05:28:08;99026.03;;;16.60;70.03
81196;BME280;70671;43.888;-79.394;2023-07-31T05:30:34;99008.19;;;16.56;70.65
81196;BME280;70671;43.888;-79.394;2023-07-31T05:33:00;99014.41;;;16.51;71.89
81196;BME280;70671;43.888;-79.394;2023-07-31T05:35:26;99013.06;;;16.46;71.88
81196;BME280;70671;43.888;-79.394;2023-07-31T05:37:52;99014.81;;;16.43;71.98
81196;BME280;70671;43.888;-79.394;2023-07-31T05:40:18;99013.22;;;16.37;71.94
81196;BME280;70671;43.888;-79.394;2023-07-31T05:42:44;99000.09;;;16.32;71.97
81196;BME280;70671;43.888;-79.394;2023-07-31T05:45:10;98999.00;;;16.24;72.60
81196;BME280;70671;43.888;-79.394;2023-07-31T05:47:36;99000.81;;;16.27;72.37
81196;BME280;70671;43.888;-79.394;2023-07-31T05:50:02;99005.06;;;16.28;72.77
81196;BME280;70671;43.888;-79.394;2023-07-31T05:52:28;98992.25;;;16.25;72.72
81196;BME280;70671;43.888;-79.394;2023-07-31T05:54:54;98992.16;;;16.19;73.45
81196;BME280;70671;43.888;-79.394;2023-07-31T05:57:20;98998.94;;;16.18;72.96
81196;BME280;70671;43.888;-79.394;2023-07-31T05:59:46;98988.41;;;16.17;73.02
81196;BME280;70671;43.888;-79.394;2023-07-31T06:02:12;98987.28;;;16.09;73.40
81196;BME280;70671;43.888;-79.394;2023-07-31T06:04:38;98992.59;;;16.12;73.37
81196;BME280;70671;43.888;-79.394;2023-07-31T06:07:04;98982.72;;;16.06;73.74
81196;BME280;70671;43.888;-79.394;2023-07-31T06:09:30;98989.75;;;16.07;73.52
81196;BME280;70671;43.888;-79.394;2023-07-31T06:11:57;98989.75;;;16.07;73.41
81196;BME280;70671;43.888;-79.394;2023-07-31T06:14:23;98967.22;;;15.88;74.01
81196;BME280;70671;43.888;-79.394;2023-07-31T06:16:49;98983.84;;;15.94;74.23
81196;BME280;70671;43.888;-79.394;2023-07-31T06:19:21;98985.81;;;15.93;74.28
81196;BME280;70671;43.888;-79.394;2023-07-31T06:21:48;98991.97;;;16.03;74.72
81196;BME280;70671;43.888;-79.394;2023-07-31T06:24:14;98988.88;;;16.15;76.20
81196;BME280;70671;43.888;-79.394;2023-07-31T06:26:44;98983.69;;;16.43;75.45
81196;BME280;70671;43.888;-79.394;2023-07-31T06:29:10;98977.13;;;16.61;74.64
81196;BME280;70671;43.888;-79.394;2023-07-31T06:31:36;98978.31;;;16.80;74.56
81196;BME280;70671;43.888;-79.394;2023-07-31T06:34:02;98966.75;;;17.07;72.87
81196;BME280;70671;43.888;-79.394;2023-07-31T06:36:28;98960.88;;;16.94;73.27
81196;BME280;70671;43.888;-79.394;2023-07-31T06:38:54;98965.28;;;17.11;72.99
81196;BME280;70671;43.888;-79.394;2023-07-31T06:41:20;98968.81;;;17.49;71.58
81196;BME280;70671;43.888;-79.394;2023-07-31T06:43:46;98912.03;;;17.11;71.44
81196;BME280;70671;43.888;-79.394;2023-07-31T06:46:12;98966.53;;;17.42;71.88
81196;BME280;70671;43.888;-79.394;2023-07-31T06:48:38;98960.00;;;17.45;71.56
81196;BME280;70671;43.888;-79.394;2023-07-31T06:51:04;98958.22;;;17.42;71.62
81196;BME280;70671;43.888;-79.394;2023-07-31T06:53:30;98960.25;;;17.47;71.32
81196;BME280;70671;43.888;-79.394;2023-07-31T06:55:56;98946.16;;;17.45;71.57
81196;BME280;70671;43.888;-79.394;2023-07-31T06:58:22;98957.06;;;17.54;70.98
81196;BME280;70671;43.888;-79.394;2023-07-31T07:00:48;98945.50;;;17.50;71.28
81196;BME280;70671;43.888;-79.394;2023-07-31T07:03:19;98921.22;;;17.33;71.43
81196;BME280;70671;43.888;-79.394;2023-07-31T07:05:45;98941.41;;;17.45;71.20
81196;BME280;70671;43.888;-79.394;2023-07-31T07:08:12;98951.03;;;17.55;71.10
81196;BME280;70671;43.888;-79.394;2023-07-31T07:10:37;98949.47;;;17.49;71.54
81196;BME280;70671;43.888;-79.394;2023-07-31T07:13:03;98949.47;;;17.49;71.97
81196;BME280;70671;43.888;-79.394;2023-07-31T07:15:30;98948.25;;;17.50;71.55
81196;BME280;70671;43.888;-79.394;2023-07-31T07:17:56;98932.78;;;17.38;71.73
81196;BME280;70671;43.888;-79.394;2023-07-31T07:20:29;98940.50;;;17.54;71.69
81196;BME280;70671;43.888;-79.394;2023-07-31T07:22:55;98952.97;;;17.44;71.66
81196;BME280;70671;43.888;-79.394;2023-07-31T07:25:21;98945.66;;;17.41;71.83
81196;BME280;70671;43.888;-79.394;2023-07-31T07:27:47;98954.78;;;17.52;72.05
81196;BME280;70671;43.888;-79.394;2023-07-31T07:30:13;98958.56;;;17.55;72.01
81196;BME280;70671;43.888;-79.394;2023-07-31T07:32:40;98948.38;;;17.35;71.77
81196;BME280;70671;43.888;-79.394;2023-07-31T07:35:06;98951.66;;;17.39;72.23
81196;BME280;70671;43.888;-79.394;2023-07-31T07:37:32;98963.50;;;17.40;71.98
81196;BME280;70671;43.888;-79.394;2023-07-31T07:39:59;98957.50;;;17.47;71.75
81196;BME280;70671;43.888;-79.394;2023-07-31T07:42:25;98952.69;;;17.42;72.33
81196;BME280;70671;43.888;-79.394;2023-07-31T07:44:51;98954.19;;;17.43;72.18
81196;BME280;70671;43.888;-79.394;2023-07-31T07:47:17;98956.88;;;17.63;71.47
81196;BME280;70671;43.888;-79.394;2023-07-31T07:49:43;98957.72;;;17.80;70.19
81196;BME280;70671;43.888;-79.394;2023-07-31T07:52:09;98954.16;;;17.74;71.09
81196;BME280;70671;43.888;-79.394;2023-07-31T07:54:35;98964.28;;;17.88;70.39
81196;BME280;70671;43.888;-79.394;2023-07-31T07:57:01;98961.09;;;17.58;71.44
81196;BME280;70671;43.888;-79.394;2023-07-31T07:59:27;98952.28;;;17.54;71.61
81196;BME280;70671;43.888;-79.394;2023-07-31T08:01:53;98954.31;;;17.54;71.16
81196;BME280;70671;43.888;-79.394;2023-07-31T08:04:19;98965.41;;;17.59;71.52
81196;BME280;70671;43.888;-79.394;2023-07-31T08:06:45;98962.97;;;17.72;70.73
81196;BME280;70671;43.888;-79.394;2023-07-31T08:09:11;98964.28;;;17.88;70.43
81196;BME280;70671;43.888;-79.394;2023-07-31T08:11:37;98955.88;;;17.66;71.44
81196;BME280;70671;43.888;-79.394;2023-07-31T08:14:03;98953.03;;;17.49;71.90
81196;BME280;70671;43.888;-79.394;2023-07-31T08:16:29;98963.69;;;17.73;70.85
81196;BME280;70671;43.888;-79.394;2023-07-31T08:18:55;98964.63;;;17.59;71.98
81196;BME280;70671;43.888;-79.394;2023-07-31T08:21:21;98953.53;;;17.53;71.92
81196;BME280;70671;43.888;-79.394;2023-07-31T08:23:47;98953.78;;;17.50;72.01
81196;BME280;70671;43.888;-79.394;2023-07-31T08:26:17;98958.56;;;17.55;72.38
81196;BME280;70671;43.888;-79.394;2023-07-31T08:28:43;98958.56;;;17.55;71.93
81196;BME280;70671;43.888;-79.394;2023-07-31T08:31:09;98958.25;;;17.47;72.32
81196;BME280;70671;43.888;-79.394;2023-07-31T08:33:36;98963.53;;;17.45;72.78
81196;BME280;70671;43.888;-79.394;2023-07-31T08:36:03;98966.88;;;17.55;72.55
81196;BME280;70671;43.888;-79.394;2023-07-31T08:38:29;98966.88;;;17.55;71.88
81196;BME280;70671;43.888;-79.394;2023-07-31T08:40:57;98968.00;;;17.37;72.99
81196;BME280;70671;43.888;-79.394;2023-07-31T08:43:26;98966.03;;;17.49;72.82
81196;BME280;70671;43.888;-79.394;2023-07-31T08:45:52;98958.41;;;17.33;72.78
81196;BME280;70671;43.888;-79.394;2023-07-31T08:48:20;98968.53;;;17.47;72.50
81196;BME280;70671;43.888;-79.394;2023-07-31T08:50:46;98959.06;;;17.22;73.76
81196;BME280;70671;43.888;-79.394;2023-07-31T08:53:12;98974.34;;;17.17;73.81
81196;BME280;70671;43.888;-79.394;2023-07-31T08:55:38;98968.91;;;17.23;73.61
81196;BME280;70671;43.888;-79.394;2023-07-31T08:58:06;98981.75;;;17.31;73.61
81196;BME280;70671;43.888;-79.394;2023-07-31T09:00:32;98985.09;;;17.10;73.97
81196;BME280;70671;43.888;-79.394;2023-07-31T09:03:18;98995.94;;;17.13;74.57
81196;BME280;70671;43.888;-79.394;2023-07-31T09:05:46;98982.31;;;17.04;74.30
81196;BME280;70671;43.888;-79.394;2023-07-31T09:08:13;98996.91;;;17.10;74.36
81196;BME280;70671;43.888;-79.394;2023-07-31T09:10:42;99000.66;;;17.07;74.85
81196;BME280;70671;43.888;-79.394;2023-07-31T09:13:09;99000.91;;;17.09;74.56
81196;BME280;70671;43.888;-79.394;2023-07-31T09:15:36;99003.09;;;17.00;74.92
81196;BME280;70671;43.888;-79.394;2023-07-31T09:18:05;98993.47;;;16.90;74.91
81196;BME280;70671;43.888;-79.394;2023-07-31T09:20:31;99009.53;;;16.91;75.67
81196;BME280;70671;43.888;-79.394;2023-07-31T09:23:09;99008.50;;;16.89;75.05
81196;BME280;70671;43.888;-79.394;2023-07-31T09:25:36;99016.09;;;16.94;75.14
81196;BME280;70671;43.888;-79.394;2023-07-31T09:28:04;99025.09;;;16.89;74.98
81196;BME280;70671;43.888;-79.394;2023-07-31T09:30:32;99030.28;;;16.81;75.42
81196;BME280;70671;43.888;-79.394;2023-07-31T09:33:09;99014.97;;;16.80;75.96
81196;BME280;70671;43.888;-79.394;2023-07-31T09:35:35;99020.41;;;16.75;75.75
81196;BME280;70671;43.888;-79.394;2023-07-31T09:38:10;99017.19;;;16.76;76.09
81196;BME280;70671;43.888;-79.394;2023-07-31T09:40:39;99005.47;;;16.61;76.05
81196;BME280;70671;43.888;-79.394;2023-07-31T09:43:07;99033.19;;;16.72;76.68
81196;BME280;70671;43.888;-79.394;2023-07-31T09:45:36;99030.59;;;16.63;77.02
81196;BME280;70671;43.888;-79.394;2023-07-31T09:48:03;99033.63;;;16.65;76.51
81196;BME280;70671;43.888;-79.394;2023-07-31T09:50:32;99035.34;;;16.63;76.69
81196;BME280;70671;43.888;-79.394;2023-07-31T09:52:58;99042.59;;;16.60;76.22
81196;BME280;70671;43.888;-79.394;2023-07-31T09:55:24;99035.72;;;16.50;76.89
81196;BME280;70671;43.888;-79.394;2023-07-31T09:57:51;99026.03;;;16.40;76.85
81196;BME280;70671;43.888;-79.394;2023-07-31T10:00:18;99042.94;;;16.47;76.65
81196;BME280;70671;43.888;-79.394;2023-07-31T10:02:46;99029.78;;;16.37;77.61
81196;BME280;70671;43.888;-79.394;2023-07-31T10:05:14;99052.13;;;16.39;77.90
81196;BME280;70671;43.888;-79.394;2023-07-31T10:07:46;99049.16;;;16.42;77.85
81196;BME280;70671;43.888;-79.394;2023-07-31T10:10:16;99039.44;;;16.67;76.23
81196;BME280;70671;43.888;-79.394;2023-07-31T10:12:44;99041.53;;;16.37;77.70
81196;BME280;70671;43.888;-79.394;2023-07-31T10:15:11;99049.91;;;16.43;77.73
81196;BME280;70671;43.888;-79.394;2023-07-31T10:17:37;99060.25;;;16.48;77.69
81196;BME280;70671;43.888;-79.394;2023-07-31T10:20:04;99058.06;;;16.52;77.74
81196;BME280;70671;43.888;-79.394;2023-07-31T10:22:31;99061.81;;;16.49;77.53
81196;BME280;70671;43.888;-79.394;2023-07-31T10:24:59;99068.66;;;16.54;77.55
81196;BME280;70671;43.888;-79.394;2023-07-31T10:27:26;99062.28;;;16.47;77.37
81196;BME280;70671;43.888;-79.394;2023-07-31T10:29:55;99080.91;;;16.53;77.64
81196;BME280;70671;43.888;-79.394;2023-07-31T10:32:22;99080.41;;;16.54;77.37
81196;BME280;70671;43.888;-79.394;2023-07-31T10:34:50;99085.66;;;16.52;77.75
81196;BME280;70671;43.888;-79.394;2023-07-31T10:37:30;99086.22;;;16.56;77.86
81196;BME280;70671;43.888;-79.394;2023-07-31T10:40:40;99089.25;;;16.58;77.61
81196;BME280;70671;43.888;-79.394;2023-07-31T10:43:07;99069.09;;;16.52;77.57
81196;BME280;70671;43.888;-79.394;2023-07-31T10:45:38;99089.53;;;16.80;77.36
81196;BME280;70671;43.888;-79.394;2023-07-31T10:50:57;99090.00;;;16.79;77.42
81196;BME280;70671;43.888;-79.394;2023-07-31T10:53:29;99099.78;;;17.00;76.35
81196;BME280;70671;43.888;-79.394;2023-07-31T10:56:02;99093.44;;;16.94;76.69
81196;BME280;70671;43.888;-79.394;2023-07-31T10:58:30;99091.50;;;17.00;76.86
81196;BME280;70671;43.888;-79.394;2023-07-31T11:00:58;99085.19;;;16.99;76.61
81196;BME280;70671;43.888;-79.394;2023-07-31T11:03:26;99089.78;;;17.02;76.45
81196;BME280;70671;43.888;-79.394;2023-07-31T11:06:02;99082.28;;;17.08;75.58
81196;BME280;70671;43.888;-79.394;2023-07-31T11:08:33;99102.06;;;17.27;75.79
81196;BME280;70671;43.888;-79.394;2023-07-31T11:13:49;99115.78;;;17.42;75.14
81196;BME280;70671;43.888;-79.394;2023-07-31T11:16:16;99111.63;;;17.52;74.47
81196;BME280;70671;43.888;-79.394;2023-07-31T11:18:44;99128.06;;;17.66;73.74
81196;BME280;70671;43.888;-79.394;2023-07-31T11:21:23;99135.34;;;17.64;74.66
81196;BME280;70671;43.888;-79.394;2023-07-31T11:23:51;99140.41;;;17.71;74.21
81196;BME280;70671;43.888;-79.394;2023-07-31T11:26:18;99143.19;;;18.02;72.67
81196;BME280;70671;43.888;-79.394;2023-07-31T11:28:47;99147.16;;;17.95;73.28
81196;BME280;70671;43.888;-79.394;2023-07-31T11:31:13;99144.06;;;17.82;73.81
81196;BME280;70671;43.888;-79.394;2023-07-31T11:33:39;99148.88;;;17.93;73.19
81196;BME280;70671;43.888;-79.394;2023-07-31T11:36:05;99157.81;;;18.08;72.58
81196;BME280;70671;43.888;-79.394;2023-07-31T11:38:33;99162.53;;;18.33;70.99
81196;BME280;70671;43.888;-79.394;2023-07-31T11:41:04;99143.47;;;18.09;71.88
81196;BME280;70671;43.888;-79.394;2023-07-31T11:43:33;99150.66;;;18.27;71.60
81196;BME280;70671;43.888;-79.394;2023-07-31T11:46:00;99159.50;;;18.31;71.93
81196;BME280;70671;43.888;-79.394;2023-07-31T11:48:36;99145.81;;;18.17;72.66
81196;BME280;70671;43.888;-79.394;2023-07-31T11:51:04;99163.19;;;18.59;70.56
81196;BME280;70671;43.888;-79.394;2023-07-31T11:53:43;99175.75;;;18.55;70.94
81196;BME280;70671;43.888;-79.394;2023-07-31T11:56:13;99181.72;;;18.84;69.69
81196;BME280;70671;43.888;-79.394;2023-07-31T11:58:41;99171.25;;;18.57;71.89
81196;BME280;70671;43.888;-79.394;2023-07-31T12:01:09;99159.44;;;18.62;70.71
81196;BME280;70671;43.888;-79.394;2023-07-31T12:03:35;99178.78;;;19.16;69.29
81196;BME280;70671;43.888;-79.394;2023-07-31T12:06:01;99189.59;;;19.08;68.93
81196;BME280;70671;43.888;-79.394;2023-07-31T12:08:29;99181.31;;;19.14;69.59
81196;BME280;70671;43.888;-79.394;2023-07-31T12:11:03;99194.44;;;19.19;68.67
81196;BME280;70671;43.888;-79.394;2023-07-31T12:13:31;99192.94;;;19.23;68.29
81196;BME280;70671;43.888;-79.394;2023-07-31T12:15:59;99193.75;;;19.35;68.85
81196;BME280;70671;43.888;-79.394;2023-07-31T12:18:27;99193.03;;;19.40;68.53
81196;BME280;70671;43.888;-79.394;2023-07-31T12:20:56;99184.13;;;19.25;69.16
81196;BME280;70671;43.888;-79.394;2023-07-31T12:23:27;99184.19;;;19.41;69.02
81196;BME280;70671;43.888;-79.394;2023-07-31T12:26:07;99191.28;;;19.81;67.22
81196;BME280;70671;43.888;-79.394;2023-07-31T12:28:37;99188.78;;;19.78;68.09
81196;BME280;70671;43.888;-79.394;2023-07-31T12:31:05;99182.72;;;19.90;66.99
81196;BME280;70671;43.888;-79.394;2023-07-31T12:33:35;99173.91;;;19.86;67.24
81196;BME280;70671;43.888;-79.394;2023-07-31T12:36:02;99178.94;;;20.26;66.10
81196;BME280;70671;43.888;-79.394;2023-07-31T12:38:28;99173.88;;;20.30;65.85
81196;BME280;70671;43.888;-79.394;2023-07-31T12:40:55;99176.69;;;20.25;66.83
81196;BME280;70671;43.888;-79.394;2023-07-31T12:43:21;99178.91;;;20.48;65.80
81196;BME280;70671;43.888;-79.394;2023-07-31T12:45:47;99169.81;;;20.53;65.84
81196;BME280;70671;43.888;-79.394;2023-07-31T12:48:13;99169.56;;;20.51;65.32
81196;BME280;70671;43.888;-79.394;2023-07-31T12:50:39;99169.78;;;20.59;65.15
81196;BME280;70671;43.888;-79.394;2023-07-31T12:53:05;99172.97;;;20.91;63.60
81196;BME280;70671;43.888;-79.394;2023-07-31T12:55:34;99178.28;;;20.83;64.81